»·PEaware :: N419TW 1L1-2O7

N419TW :: 1L1-2O7

FLIGHT INFORMATION

Flight Status: Arrived
Operator: Privately registered:
United States
More flights under this callsign
Pilot: Lukas T. (14661)
Aircraft: CIRRUS VISIONJET
(SF50)
More flights by this aircraft type
Origin: 1L1 Lincoln Co
United States
Destination: 2O7 Independence
United States
More flights between these airports :: More routes between these airports
Route: MMM
File this flight plan on PilotEdge
Remarks:
Altitude:
(Current/Filed)
16,500ft
Speed:
(Current/Filed)
220kts
Departed: 26-Sep-20 05:57 AM
Arrived: 26-Sep-20 07:10 AM
Distance/Time
Traveled:
190nm/1:12
Distance/Time
To Go:
Arrived

Flight Plot

Page will automatically refresh every two minutes.

Flight plan parsing failed; only flown route is shown


Map Options




Map Legend


Flown Route
Filed Route
Departure Airport
Arrival Airport
Navaid (VOR, NDB)
Fix

Horizontal Profiles

Position Reports

Time Latitude Longitude Heading Altitude Ground
Speed
26-Sep-20 05:54 37.793627 -114.420565 182 4846ft 0kts
26-Sep-20 05:55 37.793627 -114.420565 182 4846ft 0kts
26-Sep-20 05:56 37.780154 -114.421288 185 5457ft 97kts
26-Sep-20 05:57 37.748824 -114.424040 164 7942ft 137kts
26-Sep-20 05:58 37.709127 -114.417954 178 10634ft 152kts
26-Sep-20 05:59 37.667009 -114.411593 179 13038ft 158kts
26-Sep-20 06:00 37.630127 -114.406005 180 14690ft 164kts
26-Sep-20 06:01 37.583857 -114.399026 181 16482ft 176kts
26-Sep-20 06:02 37.525995 -114.390403 179 16537ft 231kts
26-Sep-20 06:03 37.459033 -114.380267 178 16535ft 250kts
26-Sep-20 06:04 37.398790 -114.371190 178 16534ft 251kts
26-Sep-20 06:05 37.329368 -114.360774 178 16534ft 252kts
26-Sep-20 06:06 37.259600 -114.350332 178 16504ft 253kts
26-Sep-20 06:07 37.189874 -114.339921 177 16517ft 252kts
26-Sep-20 06:08 37.120277 -114.329527 177 16517ft 253kts
26-Sep-20 06:09 37.050334 -114.319112 177 16517ft 253kts
26-Sep-20 06:10 36.980749 -114.308771 177 16517ft 253kts
26-Sep-20 06:11 36.913402 -114.310243 228 16526ft 235kts
26-Sep-20 06:12 36.864779 -114.365462 223 16516ft 237kts
26-Sep-20 06:13 36.813872 -114.417912 223 16516ft 237kts
26-Sep-20 06:14 36.762734 -114.470223 223 16455ft 240kts
26-Sep-20 06:15 36.710907 -114.523129 222 16397ft 241kts
26-Sep-20 06:16 36.659117 -114.575873 222 16397ft 241kts
26-Sep-20 06:17 36.607131 -114.628739 222 16397ft 241kts
26-Sep-20 06:18 36.555250 -114.681406 221 16400ft 243kts
26-Sep-20 06:19 36.502505 -114.734851 221 16400ft 245kts
26-Sep-20 06:20 36.449498 -114.788465 221 16400ft 246kts
26-Sep-20 06:21 36.396510 -114.841959 221 16399ft 246kts
26-Sep-20 06:22 36.343240 -114.895642 221 16399ft 246kts
26-Sep-20 06:23 36.290136 -114.949061 221 16399ft 246kts
26-Sep-20 06:24 36.236964 -115.002480 221 16399ft 247kts
26-Sep-20 06:25 36.183335 -115.056209 221 16399ft 248kts
26-Sep-20 06:26 36.130120 -115.109443 221 16425ft 247kts
26-Sep-20 06:27 36.087165 -115.161796 260 16433ft 242kts
26-Sep-20 06:28 36.104434 -115.241434 291 16426ft 243kts
26-Sep-20 06:29 36.129583 -115.319163 291 16426ft 243kts
26-Sep-20 06:30 36.154824 -115.396873 291 16415ft 244kts
26-Sep-20 06:31 36.180186 -115.474866 291 16407ft 243kts
26-Sep-20 06:32 36.198508 -115.555110 282 16407ft 243kts
26-Sep-20 06:33 36.214723 -115.636129 283 16406ft 243kts
26-Sep-20 06:34 36.231124 -115.716986 283 16473ft 241kts
26-Sep-20 06:35 36.247492 -115.797911 283 16473ft 243kts
26-Sep-20 06:36 36.263853 -115.879046 283 16472ft 242kts
26-Sep-20 06:37 36.280149 -115.960222 283 16476ft 242kts
26-Sep-20 06:38 36.296334 -116.041134 283 16490ft 241kts
26-Sep-20 06:39 36.312428 -116.121891 283 16490ft 242kts
26-Sep-20 06:40 36.328507 -116.202883 283 16490ft 242kts
26-Sep-20 06:41 36.344529 -116.283933 283 16490ft 242kts
26-Sep-20 06:42 36.360513 -116.365031 283 16489ft 243kts
26-Sep-20 06:43 36.376508 -116.446535 283 16489ft 243kts
26-Sep-20 06:44 36.392448 -116.528071 283 16489ft 243kts
26-Sep-20 06:45 36.408329 -116.609622 283 16489ft 243kts
26-Sep-20 06:46 36.424125 -116.691054 282 16491ft 243kts
26-Sep-20 06:47 36.439895 -116.772751 283 16491ft 244kts
26-Sep-20 06:49 36.455695 -116.854785 283 16491ft 244kts
26-Sep-20 06:50 36.467159 -116.938257 278 16491ft 245kts
26-Sep-20 06:51 36.476708 -117.021882 278 16490ft 245kts
26-Sep-20 06:52 36.486185 -117.105709 278 16490ft 245kts
26-Sep-20 06:53 36.495629 -117.189767 278 16454ft 246kts
26-Sep-20 06:54 36.505037 -117.274034 278 16453ft 245kts
26-Sep-20 06:55 36.501023 -117.358239 263 16453ft 246kts
26-Sep-20 06:56 36.491402 -117.442315 263 16453ft 246kts
26-Sep-20 06:57 36.481764 -117.526633 263 16453ft 246kts
26-Sep-20 06:58 36.472639 -117.606701 263 15818ft 223kts
26-Sep-20 06:59 36.464186 -117.682831 262 15014ft 224kts
26-Sep-20 07:00 36.455803 -117.761117 263 14053ft 233kts
26-Sep-20 07:01 36.467659 -117.838353 290 13063ft 234kts
26-Sep-20 07:02 36.498902 -117.908088 310 12071ft 235kts
26-Sep-20 07:03 36.541963 -117.969164 311 11069ft 230kts
26-Sep-20 07:03 36.576254 -118.017976 311 10234ft 222kts
26-Sep-20 07:05 36.628504 -118.076390 332 9073ft 219kts
26-Sep-20 07:06 36.674092 -118.107603 331 8198ft 204kts
26-Sep-20 07:06 36.715280 -118.135738 331 7363ft 202kts
26-Sep-20 07:08 36.770124 -118.174653 328 5955ft 175kts
26-Sep-20 07:08 36.797909 -118.195630 341 4776ft 96kts
26-Sep-20 07:09 36.813902 -118.203710 210 3902ft 0kts
26-Sep-20 07:11 36.810805 -118.202102 159 3902ft 8kts
26-Sep-20 07:11 36.810123 -118.202421 327 3902ft 0kts
26-Sep-20 07:12 36.810123 -118.202421 327 3902ft 0kts
26-Sep-20 07:13 36.810123 -118.202421 327 3902ft 0kts
26-Sep-20 07:14 36.810123 -118.202421 327 3902ft 0kts

Navigation Log

Ident Type
Flight plan parsing failed, navigation log unavailable